createdAt,value
2023-05-10T00:00:41.670Z,3.40
2023-05-10T00:03:13.077Z,2.80
2023-05-10T00:05:39.560Z,2.90
2023-05-10T00:08:06.377Z,3.22
2023-05-10T00:10:32.828Z,2.70
2023-05-10T00:12:59.390Z,2.60
2023-05-10T00:15:28.890Z,3.08
2023-05-10T00:17:55.472Z,2.92
2023-05-10T00:20:25.061Z,3.20
2023-05-10T00:22:51.556Z,2.80
2023-05-10T00:25:18.054Z,3.03
2023-05-10T00:27:44.611Z,3.25
2023-05-10T00:30:11.160Z,2.78
2023-05-10T00:32:40.040Z,3.10
2023-05-10T00:35:06.684Z,2.95
2023-05-10T00:37:33.180Z,2.92
2023-05-10T00:40:02.988Z,3.30
2023-05-10T00:42:29.551Z,3.25
2023-05-10T00:44:56.523Z,2.80
2023-05-10T00:47:25.860Z,3.20
2023-05-10T00:49:55.493Z,2.92
2023-05-10T00:52:24.884Z,2.92
2023-05-10T00:54:54.222Z,3.00
2023-05-10T00:57:20.837Z,3.13
2023-05-10T00:59:49.714Z,3.10
2023-05-10T01:02:18.376Z,2.80
2023-05-10T01:04:44.962Z,2.80
2023-05-10T01:07:11.572Z,3.17
2023-05-10T01:09:40.342Z,3.30
2023-05-10T01:12:08.409Z,3.30
2023-05-10T01:14:35.419Z,3.38
2023-05-10T01:17:01.895Z,3.00
2023-05-10T01:19:29.005Z,3.10
2023-05-10T01:22:14.199Z,3.00
2023-05-10T01:24:59.350Z,3.00
2023-05-10T01:27:32.148Z,2.90
2023-05-10T01:30:17.502Z,2.90
2023-05-10T01:32:51.378Z,3.10
2023-05-10T01:35:21.064Z,2.97
2023-05-10T01:37:53.964Z,3.40
2023-05-10T01:40:28.532Z,3.00
2023-05-10T01:43:02.514Z,3.17
2023-05-10T01:45:33.110Z,3.35
2023-05-10T01:48:12.210Z,3.20
2023-05-10T01:50:39.698Z,3.25
2023-05-10T01:53:07.499Z,2.88
2023-05-10T01:55:35.433Z,3.15
2023-05-10T01:58:07.656Z,3.30
2023-05-10T02:00:34.461Z,3.25
2023-05-10T02:03:04.309Z,3.05
2023-05-10T02:05:33.240Z,3.20
2023-05-10T02:08:00.002Z,3.28
2023-05-10T02:10:26.471Z,3.30
2023-05-10T02:12:53.077Z,3.25
2023-05-10T02:15:20.365Z,3.30
2023-05-10T02:17:46.876Z,3.13
2023-05-10T02:20:17.095Z,3.15
2023-05-10T02:22:43.884Z,3.67
2023-05-10T02:25:12.753Z,3.28
2023-05-10T02:27:41.556Z,3.47
2023-05-10T02:30:08.577Z,3.28
2023-05-10T02:32:35.152Z,2.90
2023-05-10T02:35:01.951Z,3.08
2023-05-10T02:37:28.697Z,3.50
2023-05-10T02:39:57.887Z,3.40
2023-05-10T02:42:28.523Z,3.47
2023-05-10T02:44:58.330Z,3.13
2023-05-10T02:47:24.939Z,3.15
2023-05-10T02:49:51.481Z,3.08
2023-05-10T02:52:27.476Z,3.47
2023-05-10T02:54:56.194Z,3.20
2023-05-10T02:57:43.736Z,3.17
2023-05-10T03:00:10.822Z,3.38
2023-05-10T03:02:37.388Z,3.47
2023-05-10T03:05:04.593Z,3.13
2023-05-10T03:07:31.113Z,3.22
2023-05-10T03:10:00.010Z,3.33
2023-05-10T03:12:26.800Z,3.30
2023-05-10T03:14:53.311Z,3.40
2023-05-10T03:17:29.434Z,3.53
2023-05-10T03:19:59.334Z,3.10
2023-05-10T03:22:26.841Z,3.15
2023-05-10T03:24:54.991Z,3.22
2023-05-10T03:27:23.731Z,3.20
2023-05-10T03:29:50.282Z,3.22
2023-05-10T03:32:19.055Z,3.20
2023-05-10T03:34:45.525Z,3.42
2023-05-10T03:37:12.078Z,3.55
2023-05-10T03:39:38.663Z,3.28
2023-05-10T03:42:05.305Z,3.20
2023-05-10T03:44:32.308Z,3.22
2023-05-10T03:46:58.870Z,3.38
2023-05-10T03:49:25.403Z,3.45
2023-05-10T03:51:52.317Z,3.03
2023-05-10T03:54:19.080Z,3.40
2023-05-10T03:56:45.681Z,3.40
2023-05-10T03:59:12.202Z,3.15
2023-05-10T04:01:38.847Z,3.20
2023-05-10T04:04:05.501Z,3.28
2023-05-10T04:06:33.004Z,3.35
2023-05-10T04:09:01.548Z,3.30
2023-05-10T04:11:28.679Z,3.58
2023-05-10T04:13:55.097Z,3.40
2023-05-10T04:16:21.589Z,3.47
2023-05-10T04:18:48.119Z,3.10
2023-05-10T04:21:14.974Z,3.45
2023-05-10T04:23:41.423Z,3.28
2023-05-10T04:26:07.985Z,3.00
2023-05-10T04:28:34.573Z,3.45
2023-05-10T04:31:04.183Z,3.25
2023-05-10T04:33:33.668Z,3.47
2023-05-10T04:36:00.269Z,3.78
2023-05-10T04:38:26.931Z,3.40
2023-05-10T04:40:53.659Z,3.40
2023-05-10T04:43:20.389Z,3.50
2023-05-10T04:45:46.949Z,3.53
2023-05-10T04:48:13.519Z,3.88
2023-05-10T04:50:43.278Z,3.42
2023-05-10T04:53:10.104Z,3.28
2023-05-10T04:55:36.612Z,3.58
2023-05-10T04:58:03.899Z,3.58
2023-05-10T05:00:30.360Z,3.42
2023-05-10T05:02:56.932Z,3.22
2023-05-10T05:05:23.536Z,3.33
2023-05-10T05:07:50.038Z,3.38
2023-05-10T05:10:19.038Z,3.28
2023-05-10T05:12:48.167Z,3.42
2023-05-10T05:15:16.214Z,3.33
2023-05-10T05:17:42.792Z,3.33
2023-05-10T05:20:09.604Z,3.40
2023-05-10T05:22:36.948Z,5.75
2023-05-10T05:25:04.450Z,21.23
2023-05-10T05:27:33.353Z,17.10
2023-05-10T05:29:59.827Z,15.38
2023-05-10T05:32:26.427Z,14.23
2023-05-10T05:34:52.992Z,14.02
2023-05-10T05:37:20.246Z,13.25
2023-05-10T05:39:46.897Z,13.18
2023-05-10T05:42:15.691Z,13.82
2023-05-10T05:44:42.271Z,13.68
2023-05-10T05:47:08.970Z,12.93
2023-05-10T05:49:35.411Z,12.35
2023-05-10T05:52:02.713Z,11.27
2023-05-10T05:54:29.238Z,11.82
2023-05-10T05:56:56.425Z,12.20
2023-05-10T05:59:23.052Z,10.63
2023-05-10T06:01:51.893Z,10.40
2023-05-10T06:04:18.457Z,9.80
2023-05-10T06:06:44.962Z,10.73
2023-05-10T06:09:11.481Z,10.85
2023-05-10T06:11:37.899Z,9.40
2023-05-10T06:14:08.880Z,9.30
2023-05-10T06:16:35.800Z,9.55
2023-05-10T06:19:04.725Z,9.75
2023-05-10T06:21:31.517Z,9.50
2023-05-10T06:23:57.992Z,9.23
2023-05-10T06:26:24.607Z,9.30
2023-05-10T06:28:53.801Z,10.02
2023-05-10T06:31:22.629Z,8.48
2023-05-10T06:33:49.445Z,8.98
2023-05-10T06:36:15.964Z,8.82
2023-05-10T06:38:42.412Z,9.25
2023-05-10T06:41:11.228Z,8.88
2023-05-10T06:43:40.966Z,8.65
2023-05-10T06:46:08.336Z,8.23
2023-05-10T06:48:35.191Z,9.18
2023-05-10T06:51:01.829Z,9.55
2023-05-10T06:53:28.480Z,8.60
2023-05-10T06:55:54.940Z,8.55
2023-05-10T06:58:21.430Z,8.32
2023-05-10T07:00:48.387Z,8.35
2023-05-10T07:03:15.204Z,7.88
2023-05-10T07:05:41.857Z,8.40
2023-05-10T07:08:11.450Z,8.52
2023-05-10T07:10:37.969Z,9.02
2023-05-10T07:13:04.595Z,8.50
2023-05-10T07:15:31.208Z,7.80
2023-05-10T07:17:57.749Z,8.10
2023-05-10T07:20:24.298Z,8.55
2023-05-10T07:22:51.002Z,7.65
2023-05-10T07:25:17.744Z,8.52
2023-05-10T07:27:44.339Z,8.55
2023-05-10T07:30:11.129Z,8.90
2023-05-10T07:32:37.819Z,8.40
2023-05-10T07:35:04.450Z,8.52
2023-05-10T07:37:33.286Z,8.30
2023-05-10T07:39:59.774Z,8.23
2023-05-10T07:42:28.995Z,7.65
2023-05-10T07:44:55.957Z,7.55
2023-05-10T07:47:22.513Z,7.75
2023-05-10T07:49:51.360Z,7.97
2023-05-10T07:52:21.945Z,8.43
2023-05-10T07:54:49.626Z,8.27
2023-05-10T07:57:18.578Z,7.60
2023-05-10T07:59:45.822Z,8.02
2023-05-10T08:02:12.258Z,7.65
2023-05-10T08:04:41.224Z,8.05
2023-05-10T08:07:08.282Z,7.50
2023-05-10T08:09:34.758Z,7.75
2023-05-10T08:12:01.334Z,8.15
2023-05-10T08:14:31.176Z,8.05
2023-05-10T08:16:57.609Z,8.43
2023-05-10T08:19:26.428Z,7.60
2023-05-10T08:21:54.377Z,7.22
2023-05-10T08:24:20.868Z,7.10
2023-05-10T08:26:49.637Z,7.32
2023-05-10T08:29:16.439Z,7.40
2023-05-10T08:31:42.929Z,7.65
2023-05-10T08:34:09.621Z,6.95
2023-05-10T08:36:38.234Z,8.20
2023-05-10T08:39:05.714Z,7.40
2023-05-10T08:41:34.510Z,7.70
2023-05-10T08:44:02.584Z,8.10
2023-05-10T08:46:31.949Z,7.95
2023-05-10T08:48:58.920Z,7.38
2023-05-10T08:51:27.782Z,7.20
2023-05-10T08:53:54.793Z,8.45
2023-05-10T08:56:21.403Z,8.25
2023-05-10T08:58:50.819Z,8.77
2023-05-10T09:01:17.805Z,8.40
2023-05-10T09:03:48.715Z,9.10
2023-05-10T09:06:15.483Z,9.02
2023-05-10T09:08:44.828Z,9.27
2023-05-10T09:11:11.340Z,8.75
2023-05-10T09:13:40.195Z,9.43
2023-05-10T09:16:19.826Z,9.85
2023-05-10T09:18:51.190Z,9.50
2023-05-10T09:21:22.692Z,9.93
2023-05-10T09:23:51.093Z,9.05
2023-05-10T09:26:18.505Z,8.30
2023-05-10T09:28:56.913Z,8.68
2023-05-10T09:31:23.732Z,8.57
2023-05-10T09:33:50.469Z,8.88
2023-05-10T09:36:17.163Z,8.98
2023-05-10T09:38:52.940Z,8.40
2023-05-10T09:41:22.353Z,9.27
2023-05-10T09:43:48.926Z,8.18
2023-05-10T09:46:20.881Z,9.05
2023-05-10T09:48:48.558Z,9.02
2023-05-10T09:51:21.701Z,8.80
2023-05-10T09:53:51.731Z,8.93
2023-05-10T09:56:33.812Z,8.55
2023-05-10T09:59:03.696Z,8.57
2023-05-10T10:01:30.278Z,8.73
2023-05-10T10:03:58.816Z,8.82
2023-05-10T10:06:29.902Z,8.75
2023-05-10T10:08:59.128Z,8.38
2023-05-10T10:11:28.000Z,8.60
2023-05-10T10:13:54.645Z,8.90
2023-05-10T10:16:21.219Z,7.85
2023-05-10T10:18:50.558Z,8.93
2023-05-10T10:21:17.046Z,9.10
2023-05-10T10:23:44.589Z,8.55
2023-05-10T10:26:11.079Z,9.10
2023-05-10T10:28:37.529Z,8.95
2023-05-10T10:31:13.440Z,8.68
2023-05-10T10:33:58.321Z,8.60
2023-05-10T10:36:28.152Z,8.45
2023-05-10T10:38:58.953Z,8.63
2023-05-10T10:41:45.391Z,8.73
2023-05-10T10:44:27.443Z,8.38
2023-05-10T10:49:42.291Z,8.65
2023-05-10T10:52:18.313Z,7.93
2023-05-10T10:55:11.302Z,7.80
2023-05-10T10:57:40.798Z,8.95
2023-05-10T11:00:19.880Z,8.43
2023-05-10T11:02:49.889Z,8.40
2023-05-10T11:05:25.853Z,8.20
2023-05-10T11:07:55.806Z,8.63
2023-05-10T11:10:27.736Z,8.77
2023-05-10T11:12:55.213Z,8.50
2023-05-10T11:15:21.792Z,8.43
2023-05-10T11:17:53.018Z,8.23
2023-05-10T11:22:51.989Z,7.90
2023-05-10T11:25:18.656Z,8.52
2023-05-10T11:27:45.462Z,8.63
2023-05-10T11:30:12.555Z,8.60
2023-05-10T11:32:43.900Z,7.80
2023-05-10T11:35:10.910Z,7.82
2023-05-10T11:37:42.352Z,8.45
2023-05-10T11:40:10.721Z,8.07
2023-05-10T11:42:40.293Z,8.07
2023-05-10T11:45:07.325Z,7.60
2023-05-10T11:47:36.732Z,7.80
2023-05-10T11:50:03.308Z,7.70
2023-05-10T11:52:30.253Z,6.85
2023-05-10T11:54:59.138Z,7.53
2023-05-10T11:57:27.106Z,7.78
2023-05-10T12:00:04.737Z,8.65
2023-05-10T12:02:31.481Z,7.22
2023-05-10T12:04:58.235Z,8.40
2023-05-10T12:07:24.870Z,8.15
2023-05-10T12:10:15.747Z,8.48
2023-05-10T12:12:43.259Z,8.10
2023-05-10T12:15:22.859Z,7.97
2023-05-10T12:17:49.945Z,8.43
2023-05-10T12:20:21.091Z,8.93
2023-05-10T12:22:50.505Z,8.27
2023-05-10T12:25:19.571Z,10.30
2023-05-10T12:27:49.775Z,9.10
2023-05-10T12:30:19.959Z,10.32
2023-05-10T12:32:46.763Z,9.85
2023-05-10T12:35:13.209Z,9.65
2023-05-10T12:37:40.272Z,10.35
2023-05-10T12:40:07.519Z,9.77
2023-05-10T12:42:36.690Z,9.43
2023-05-10T12:45:03.692Z,9.05
2023-05-10T12:47:31.197Z,9.25
2023-05-10T12:49:59.957Z,9.50
2023-05-10T12:52:27.107Z,9.25
2023-05-10T12:54:56.981Z,9.40
2023-05-10T12:57:23.577Z,9.80
2023-05-10T12:59:50.068Z,9.05
2023-05-10T13:02:18.839Z,9.38
2023-05-10T13:04:45.805Z,8.32
2023-05-10T13:07:12.304Z,9.02
2023-05-10T13:09:38.771Z,9.18
2023-05-10T13:12:05.886Z,8.85
2023-05-10T13:14:32.951Z,8.90
2023-05-10T13:17:01.898Z,9.23
2023-05-10T13:19:28.534Z,8.68
2023-05-10T13:21:57.414Z,8.98
2023-05-10T13:24:23.892Z,9.63
2023-05-10T13:26:50.512Z,8.85
2023-05-10T13:29:19.124Z,8.80
2023-05-10T13:31:45.802Z,9.35
2023-05-10T13:34:12.397Z,8.70
2023-05-10T13:36:41.171Z,8.65
2023-05-10T13:39:07.732Z,8.27
2023-05-10T13:41:34.283Z,8.60
2023-05-10T13:44:00.786Z,8.77
2023-05-10T13:46:27.253Z,8.60
2023-05-10T13:48:53.880Z,8.40
2023-05-10T13:51:20.431Z,7.75
2023-05-10T13:53:48.106Z,8.13
2023-05-10T13:56:15.004Z,8.60
2023-05-10T13:58:41.460Z,8.93
2023-05-10T14:01:10.991Z,8.10
2023-05-10T14:03:37.524Z,8.00
2023-05-10T14:06:04.149Z,8.27
2023-05-10T14:08:30.593Z,8.00
2023-05-10T14:10:59.333Z,8.68
2023-05-10T14:13:26.037Z,8.48
2023-05-10T14:15:53.576Z,8.65
2023-05-10T14:18:22.299Z,7.85
2023-05-10T14:20:50.878Z,7.82
2023-05-10T14:23:20.874Z,8.35
2023-05-10T14:25:47.349Z,8.07
2023-05-10T14:28:17.073Z,8.15
2023-05-10T14:30:43.549Z,7.18
2023-05-10T14:33:12.611Z,7.65
2023-05-10T14:35:39.099Z,7.90
2023-05-10T14:38:07.992Z,8.18
2023-05-10T14:40:34.573Z,7.68
2023-05-10T14:43:01.143Z,7.53
2023-05-10T14:45:27.619Z,8.45
2023-05-10T14:47:54.154Z,7.68
2023-05-10T14:50:35.228Z,7.65
2023-05-10T14:53:02.775Z,7.82
2023-05-10T14:55:29.126Z,7.47
2023-05-10T14:57:55.604Z,7.90
2023-05-10T15:00:22.189Z,7.07
2023-05-10T15:02:49.479Z,7.75
2023-05-10T15:05:16.918Z,7.50
2023-05-10T15:07:44.899Z,7.38
2023-05-10T15:10:14.937Z,7.55
2023-05-10T15:12:43.746Z,6.70
2023-05-10T15:15:10.304Z,7.57
2023-05-10T15:17:36.852Z,7.35
2023-05-10T15:20:06.461Z,7.32
2023-05-10T15:22:34.259Z,7.68
2023-05-10T15:25:01.112Z,7.18
2023-05-10T15:27:29.949Z,6.95
2023-05-10T15:29:56.916Z,7.47
2023-05-10T15:32:23.401Z,6.60
2023-05-10T15:34:49.870Z,6.80
2023-05-10T15:37:19.308Z,7.18
2023-05-10T15:39:45.773Z,6.78
2023-05-10T15:42:12.971Z,7.50
2023-05-10T15:44:40.699Z,6.88
2023-05-10T15:47:07.173Z,6.95
2023-05-10T15:49:35.953Z,6.72
2023-05-10T15:52:02.475Z,6.88
2023-05-10T15:54:32.009Z,6.90
2023-05-10T15:56:58.445Z,6.95
2023-05-10T15:59:24.939Z,6.80
2023-05-10T16:01:52.091Z,6.68
2023-05-10T16:04:18.681Z,7.15
2023-05-10T16:06:49.284Z,7.03
2023-05-10T16:09:15.885Z,7.20
2023-05-10T16:11:45.469Z,6.90
2023-05-10T16:14:11.956Z,6.65
2023-05-10T16:16:38.697Z,6.85
2023-05-10T16:19:07.750Z,7.00
2023-05-10T16:21:34.327Z,6.97
2023-05-10T16:24:01.176Z,6.60
2023-05-10T16:26:27.700Z,7.18
2023-05-10T16:28:54.212Z,7.68
2023-05-10T16:31:21.241Z,6.82
2023-05-10T16:33:50.084Z,6.43
2023-05-10T16:36:16.616Z,6.97
2023-05-10T16:38:43.173Z,6.95
2023-05-10T16:41:09.701Z,6.97
2023-05-10T16:43:36.801Z,7.13
2023-05-10T16:46:03.501Z,7.35
2023-05-10T16:48:32.373Z,6.82
2023-05-10T16:50:58.960Z,7.47
2023-05-10T16:53:25.442Z,7.00
2023-05-10T16:55:51.988Z,7.22
2023-05-10T16:58:18.385Z,6.68
2023-05-10T17:00:45.111Z,7.60
2023-05-10T17:03:14.347Z,6.72
2023-05-10T17:05:43.226Z,7.18
2023-05-10T17:08:09.890Z,7.30
2023-05-10T17:10:38.669Z,7.15
2023-05-10T17:13:05.290Z,7.57
2023-05-10T17:15:31.936Z,7.05
2023-05-10T17:17:58.480Z,7.20
2023-05-10T17:20:25.023Z,7.10
2023-05-10T17:22:51.603Z,7.35
2023-05-10T17:25:18.369Z,7.20
2023-05-10T17:27:49.947Z,7.47
2023-05-10T17:30:17.054Z,7.65
2023-05-10T17:32:43.672Z,7.13
2023-05-10T17:35:12.680Z,7.35
2023-05-10T17:37:41.469Z,7.43
2023-05-10T17:40:10.108Z,7.15
2023-05-10T17:42:36.769Z,7.25
2023-05-10T17:45:03.872Z,7.30
2023-05-10T17:47:32.777Z,8.00
2023-05-10T17:50:01.660Z,7.50
2023-05-10T17:52:31.355Z,7.50
2023-05-10T17:54:59.716Z,8.00
2023-05-10T17:57:26.290Z,9.50
2023-05-10T17:59:52.887Z,9.70
2023-05-10T18:02:22.017Z,9.52
2023-05-10T18:04:49.554Z,11.13
2023-05-10T18:07:16.562Z,11.23
2023-05-10T18:09:43.033Z,11.65
2023-05-10T18:12:09.482Z,10.63
2023-05-10T18:14:41.054Z,10.68
2023-05-10T18:17:09.173Z,10.70
2023-05-10T18:19:35.788Z,11.05
2023-05-10T18:22:02.214Z,10.57
2023-05-10T18:24:38.218Z,10.60
2023-05-10T18:27:05.888Z,10.85
2023-05-10T18:29:32.545Z,9.75
2023-05-10T18:32:01.504Z,10.93
2023-05-10T18:34:28.812Z,11.05
2023-05-10T18:36:55.306Z,10.60
2023-05-10T18:39:21.759Z,10.98
2023-05-10T18:41:50.648Z,9.80
2023-05-10T18:44:19.533Z,9.98
2023-05-10T18:46:48.645Z,11.13
2023-05-10T18:49:15.202Z,10.73
2023-05-10T18:51:41.601Z,9.52
2023-05-10T18:54:08.290Z,10.27
2023-05-10T18:56:37.596Z,9.73
2023-05-10T18:59:04.113Z,9.68
2023-05-10T19:01:30.983Z,10.70
2023-05-10T19:03:59.854Z,10.27
2023-05-10T19:06:26.393Z,9.70
2023-05-10T19:08:52.971Z,9.77
2023-05-10T19:11:21.828Z,9.48
2023-05-10T19:13:50.720Z,9.30
2023-05-10T19:16:23.415Z,8.82
2023-05-10T19:18:54.919Z,9.70
2023-05-10T19:21:22.348Z,9.48
2023-05-10T19:23:49.342Z,9.43
2023-05-10T19:26:15.906Z,9.65
2023-05-10T19:28:42.578Z,8.77
2023-05-10T19:31:09.201Z,8.43
2023-05-10T19:33:38.382Z,8.60
2023-05-10T19:36:05.240Z,8.63
2023-05-10T19:38:31.699Z,8.57
2023-05-10T19:40:58.691Z,8.80
2023-05-10T19:43:25.547Z,9.23
2023-05-10T19:45:54.304Z,9.50
2023-05-10T19:48:20.844Z,8.73
2023-05-10T19:50:49.719Z,8.65
2023-05-10T19:53:16.571Z,8.95
2023-05-10T19:55:43.253Z,9.25
2023-05-10T19:58:12.089Z,8.73
2023-05-10T20:00:38.673Z,8.70
2023-05-10T20:03:08.448Z,8.77
2023-05-10T20:05:35.648Z,8.53
2023-05-10T20:08:04.977Z,8.70
2023-05-10T20:10:31.663Z,8.32
2023-05-10T20:12:59.124Z,8.32
2023-05-10T20:15:27.938Z,8.20
2023-05-10T20:17:54.867Z,7.95
2023-05-10T20:20:24.553Z,8.18
2023-05-10T20:22:51.337Z,9.13
2023-05-10T20:25:18.250Z,8.07
2023-05-10T20:27:50.118Z,8.73
2023-05-10T20:30:18.120Z,8.40
2023-05-10T20:32:45.521Z,8.10
2023-05-10T20:35:12.417Z,8.55
2023-05-10T20:37:41.800Z,8.88
2023-05-10T20:40:08.721Z,7.85
2023-05-10T20:42:35.688Z,8.13
2023-05-10T20:45:02.308Z,7.70
2023-05-10T20:47:29.294Z,8.07
2023-05-10T20:49:55.940Z,8.10
2023-05-10T20:52:23.965Z,7.90
2023-05-10T20:54:53.430Z,7.55
2023-05-10T20:57:20.221Z,7.88
2023-05-10T20:59:46.768Z,8.23
2023-05-10T21:02:13.260Z,7.93
2023-05-10T21:04:39.756Z,8.35
2023-05-10T21:07:06.374Z,8.15
2023-05-10T21:09:35.215Z,7.68
2023-05-10T21:12:03.416Z,7.63
2023-05-10T21:14:30.842Z,7.88
2023-05-10T21:16:57.384Z,8.68
2023-05-10T21:19:26.980Z,8.13
2023-05-10T21:21:56.133Z,8.25
2023-05-10T21:24:23.342Z,9.02
2023-05-10T21:26:52.929Z,8.65
2023-05-10T21:29:22.515Z,8.05
2023-05-10T21:31:49.070Z,7.97
2023-05-10T21:34:18.030Z,8.57
2023-05-10T21:36:44.513Z,8.10
2023-05-10T21:39:11.333Z,8.50
2023-05-10T21:41:37.968Z,8.40
2023-05-10T21:44:04.594Z,8.45
2023-05-10T21:46:31.125Z,8.30
2023-05-10T21:49:00.081Z,8.60
2023-05-10T21:51:26.655Z,8.63
2023-05-10T21:53:53.206Z,8.48
2023-05-10T21:56:19.680Z,8.63
2023-05-10T21:58:46.098Z,8.57
2023-05-10T22:01:14.637Z,7.95
2023-05-10T22:03:43.482Z,8.60
2023-05-10T22:06:10.141Z,8.23
2023-05-10T22:08:36.617Z,8.40
2023-05-10T22:11:03.181Z,7.80
2023-05-10T22:13:29.673Z,8.18
2023-05-10T22:15:59.324Z,7.68
2023-05-10T22:18:28.629Z,8.18
2023-05-10T22:20:57.568Z,7.85
2023-05-10T22:23:24.027Z,8.68
2023-05-10T22:25:50.649Z,7.88
2023-05-10T22:28:17.083Z,8.00
2023-05-10T22:30:43.709Z,7.32
2023-05-10T22:33:10.250Z,7.75
2023-05-10T22:35:36.781Z,7.80
2023-05-10T22:38:05.695Z,8.02
2023-05-10T22:40:32.288Z,7.97
2023-05-10T22:42:58.768Z,7.88
2023-05-10T22:45:25.406Z,7.30
2023-05-10T22:47:52.372Z,7.40
2023-05-10T22:50:19.300Z,7.50
2023-05-10T22:52:46.019Z,7.80
2023-05-10T22:55:12.471Z,8.00
2023-05-10T22:57:39.083Z,7.55
2023-05-10T23:00:09.346Z,6.97
2023-05-10T23:02:35.803Z,7.57
2023-05-10T23:05:02.525Z,7.25
2023-05-10T23:07:29.171Z,6.72
2023-05-10T23:09:55.740Z,6.80
2023-05-10T23:12:22.270Z,7.13
2023-05-10T23:14:49.329Z,7.22
2023-05-10T23:17:15.987Z,8.00
2023-05-10T23:19:42.442Z,7.53
2023-05-10T23:22:09.933Z,7.57
2023-05-10T23:24:36.399Z,6.78
2023-05-10T23:27:03.855Z,7.32
2023-05-10T23:29:32.056Z,7.22
2023-05-10T23:31:58.545Z,7.20
2023-05-10T23:34:25.195Z,7.72
2023-05-10T23:36:54.655Z,7.35
2023-05-10T23:39:21.366Z,6.97
2023-05-10T23:41:47.970Z,7.25
2023-05-10T23:44:14.502Z,7.13
2023-05-10T23:46:40.980Z,7.07
2023-05-10T23:49:07.433Z,6.97
2023-05-10T23:51:36.259Z,6.75
2023-05-10T23:54:02.938Z,6.88
2023-05-10T23:56:29.445Z,6.65
2023-05-10T23:58:55.985Z,6.60
